Time;durP1;ratioP1;P1;durP2;ratioP2;P2;SDS_P1;SDS_P2;PMS_P1;PMS_P2;Temp;Humidity;BMP_temperature;BMP_pressure;BME280_temperature;BME280_humidity;BME280_pressure;Samples;Min_cycle;Max_cycle;Signal;HPM_P1;HPM_P2
2022/01/28 00:02:31;;;;;;;4.73;3.00;;;5.40;75.10;;;;;;5052007;28;20430;-67
2022/01/28 00:04:54;;;;;;;8.27;4.20;;;5.30;77.60;;;;;;5034191;28;20780;-76
2022/01/28 00:07:20;;;;;;;23.47;4.00;;;5.30;77.60;;;;;;5037566;28;20414;-79
2022/01/28 00:09:46;;;;;;;12.33;3.77;;;5.30;77.60;;;;;;5052100;28;20743;-79
2022/01/28 00:12:13;;;;;;;9.37;4.37;;;5.30;77.70;;;;;;5051333;28;20551;-75
2022/01/28 00:38:52;;;;;;;5.93;2.13;;;5.50;49.50;;;;;;5052753;28;20382;-67
2022/01/28 00:41:18;;;;;;;3.77;2.80;;;5.50;50.70;;;;;;5051254;28;20426;-67
2022/01/28 00:43:43;;;;;;;2.57;2.37;;;5.50;42.40;;;;;;5033716;28;20175;-78
2022/01/28 00:46:09;;;;;;;6.10;3.57;;;5.50;32.00;;;;;;5035829;28;20929;-67
2022/01/28 00:48:35;;;;;;;4.20;2.10;;;5.60;33.50;;;;;;5052555;28;20164;-78
2022/01/28 00:51:01;;;;;;;8.93;2.27;;;5.50;28.90;;;;;;5050798;28;21174;-67
2022/01/28 00:53:26;;;;;;;23.03;3.17;;;5.50;26.80;;;;;;5032363;28;20200;-78
2022/01/28 00:55:55;;;;;;;9.27;3.30;;;5.60;29.00;;;;;;5032009;28;20165;-67
2022/01/28 00:58:24;;;;;;;4.73;2.63;;;5.50;24.80;;;;;;5053386;28;20709;-73
2022/01/28 01:00:50;;;;;;;10.30;2.83;;;5.50;21.90;;;;;;5052476;28;20425;-77
2022/01/28 01:03:16;;;;;;;6.90;2.50;;;5.50;24.90;;;;;;5033649;28;20982;-78
2022/01/28 01:05:42;;;;;;;7.83;2.70;;;5.50;18.50;;;;;;5033397;28;20884;-67
2022/01/28 01:08:08;;;;;;;9.50;2.83;;;5.50;19.80;;;;;;5051226;28;20423;-79
2022/01/28 01:10:34;;;;;;;11.43;2.73;;;5.50;20.70;;;;;;5052242;28;20455;-67
2022/01/28 01:13:00;;;;;;;6.60;3.60;;;5.50;23.90;;;;;;5035836;28;20450;-67
2022/01/28 01:15:32;;;;;;;6.83;2.73;;;5.50;21.10;;;;;;5033249;28;20958;-67
2022/01/28 01:23:06;;;;;;;5.67;2.83;;;5.50;23.80;;;;;;5038850;28;20445;-67
2022/01/28 01:25:42;;;;;;;7.03;3.40;;;5.50;28.00;;;;;;5033128;28;20173;-77
2022/01/28 01:28:10;;;;;;;6.87;2.13;;;5.50;28.90;;;;;;5048932;28;20470;-79
2022/01/28 01:30:40;;;;;;;2.77;2.47;;;5.50;26.70;;;;;;5051810;28;20473;-68
2022/01/28 01:33:06;;;;;;;10.50;2.20;;;5.50;23.30;;;;;;5050794;28;20918;-67
2022/01/28 01:35:32;;;;;;;22.57;3.77;;;5.50;21.50;;;;;;5052870;28;20452;-68
2022/01/28 01:37:59;;;;;;;7.50;2.37;;;5.50;23.00;;;;;;5035444;28;20423;-78
2022/01/28 01:40:31;;;;;;;7.53;2.37;;;5.40;21.70;;;;;;5031077;28;20513;-79
2022/01/28 01:43:19;;;;;;;7.83;2.70;;;5.40;16.90;;;;;;5049033;28;20417;-79
2022/01/28 01:53:51;;;;;;;16.47;3.50;;;5.30;28.80;;;;;;5056733;28;20506;-67
2022/01/28 01:56:18;;;;;;;6.43;2.07;;;5.30;30.30;;;;;;5056776;28;20393;-67
2022/01/28 01:58:45;;;;;;;8.70;2.97;;;5.30;28.80;;;;;;5056057;28;20402;-79
2022/01/28 02:01:11;;;;;;;11.80;3.70;;;5.30;28.80;;;;;;5056670;28;20505;-67
2022/01/28 02:03:37;;;;;;;6.27;4.30;;;5.30;28.80;;;;;;5056651;28;20389;-68
2022/01/28 02:06:03;;;;;;;15.73;3.77;;;5.30;32.50;;;;;;5055074;28;20426;-67
2022/01/28 02:08:32;;;;;;;11.90;3.57;;;5.30;32.40;;;;;;5055519;28;20242;-72
2022/01/28 02:10:59;;;;;;;9.73;3.40;;;5.30;36.20;;;;;;5056546;28;20422;-79
2022/01/28 02:13:29;;;;;;;9.07;3.80;;;5.30;38.00;;;;;;5056633;28;20449;-67
2022/01/28 02:15:57;;;;;;;7.20;3.07;;;5.30;41.80;;;;;;5055119;28;20402;-78
2022/01/28 02:18:23;;;;;;;5.70;2.70;;;5.20;48.70;;;;;;5056334;28;20401;-79
2022/01/28 02:20:52;;;;;;;17.57;4.40;;;5.20;50.30;;;;;;5054404;28;20845;-67
2022/01/28 02:23:19;;;;;;;11.90;3.60;;;5.20;47.60;;;;;;5056365;28;20440;-67
2022/01/28 02:25:45;;;;;;;3.37;3.07;;;5.10;48.60;;;;;;5055961;28;20405;-71
2022/01/28 02:28:14;;;;;;;7.90;2.93;;;5.10;47.80;;;;;;5055748;28;20402;-77
2022/01/28 02:30:39;;;;;;;4.93;2.73;;;5.10;46.10;;;;;;5055303;28;20543;-67
2022/01/28 02:33:11;;;;;;;8.93;3.20;;;5.10;48.20;;;;;;5056114;28;20441;-66
2022/01/28 02:35:38;;;;;;;9.63;3.73;;;5.10;46.00;;;;;;5056110;28;20691;-78
2022/01/28 02:38:06;;;;;;;15.07;3.30;;;5.10;39.10;;;;;;5056072;28;20403;-74
2022/01/28 02:40:32;;;;;;;7.30;2.97;;;5.10;40.90;;;;;;5055071;28;20434;-67
2022/01/28 02:43:14;;;;;;;12.50;2.80;;;5.00;39.00;;;;;;5055981;28;20420;-68
2022/01/28 02:45:41;;;;;;;6.03;2.67;;;5.00;28.60;;;;;;5053959;28;20171;-67
2022/01/28 02:48:14;;;;;;;3.63;2.30;;;5.00;22.80;;;;;;5055872;28;20742;-79
2022/01/28 02:51:23;;;;;;;12.70;3.60;;;5.00;13.00;;;;;;5054799;28;20483;-79
2022/01/28 02:53:39;;;;;;;14.87;3.30;;;5.00;11.20;;;;;;5055244;28;20449;-66
2022/01/28 02:56:16;;;;;;;8.30;2.70;;;5.00;4.80;;;;;;5055643;28;20406;-80
2022/01/28 02:58:46;;;;;;;7.03;3.00;;;5.00;1.00;;;;;;5055044;28;20397;-79
2022/01/28 03:01:14;;;;;;;9.13;3.20;;;5.10;1.00;;;;;;5055367;28;20509;-67
2022/01/28 03:03:45;;;;;;;5.07;2.37;;;5.10;1.00;;;;;;5055641;28;20894;-79
2022/01/28 03:06:13;;;;;;;14.70;2.87;;;5.00;1.00;;;;;;5054898;28;20459;-69
2022/01/28 03:08:42;;;;;;;7.33;2.60;;;5.00;1.00;;;;;;5053381;28;20920;-79
2022/01/28 03:14:37;;;;;;;16.87;4.43;;;4.90;1.00;;;;;;5055264;28;20442;-78
2022/01/28 03:16:39;;;;;;;3.50;2.83;;;5.00;1.00;;;;;;5054553;28;20409;-66
2022/01/28 03:19:18;;;;;;;23.77;5.30;;;4.90;1.00;;;;;;5054424;28;20811;-66
2022/01/28 03:21:53;;;;;;;14.67;3.10;;;4.80;1.00;;;;;;5053873;28;20426;-66
2022/01/28 03:24:19;;;;;;;8.60;2.77;;;4.90;1.00;;;;;;5054511;28;20409;-79
2022/01/28 03:26:47;;;;;;;15.63;4.67;;;4.80;1.00;;;;;;5053888;28;20483;-79
2022/01/28 03:29:13;;;;;;;6.53;3.07;;;4.80;1.00;;;;;;5054190;28;20405;-66
2022/01/28 03:31:38;;;;;;;7.87;3.40;;;4.80;1.00;;;;;;5054850;28;20421;-67
2022/01/28 03:34:04;;;;;;;3.83;2.77;;;4.80;1.00;;;;;;5055050;28;20241;-66
2022/01/28 03:36:30;;;;;;;11.97;3.50;;;4.80;1.00;;;;;;5053579;28;20246;-67
2022/01/28 03:38:56;;;;;;;8.90;3.93;;;4.70;1.00;;;;;;5052758;28;20417;-67
2022/01/28 03:41:23;;;;;;;9.33;4.20;;;4.70;1.00;;;;;;5054540;28;20473;-70
2022/01/28 03:43:49;;;;;;;10.27;2.43;;;4.70;1.00;;;;;;5054554;28;20159;-79
2022/01/28 03:46:15;;;;;;;12.50;3.50;;;4.70;1.00;;;;;;5054668;28;20436;-68
2022/01/28 03:48:41;;;;;;;10.93;2.83;;;4.70;1.00;;;;;;5053704;28;20401;-78
2022/01/28 03:51:07;;;;;;;8.47;2.97;;;4.70;1.00;;;;;;5054571;28;20519;-79
2022/01/28 03:53:33;;;;;;;4.70;2.90;;;4.70;1.00;;;;;;5054532;28;20451;-72
2022/01/28 03:55:58;;;;;;;14.60;3.07;;;4.70;1.00;;;;;;5054651;28;20171;-79
2022/01/28 03:58:27;;;;;;;8.20;3.30;;;4.70;1.00;;;;;;5054385;28;20255;-67
2022/01/28 04:00:55;;;;;;;2.93;2.60;;;4.70;1.00;;;;;;5053059;28;20190;-74
2022/01/28 04:11:34;;;;;;;5.80;2.60;;;4.70;1.00;;;;;;5053964;28;20507;-78
2022/01/28 04:14:23;;;;;;;15.33;2.50;;;4.60;1.00;;;;;;5054234;28;20459;-79
2022/01/28 04:19:33;;;;;;;10.43;2.97;;;4.60;1.00;;;;;;5053188;28;20401;-67
2022/01/28 04:21:59;;;;;;;5.83;2.33;;;4.70;1.00;;;;;;5053021;28;20437;-67
2022/01/28 04:24:25;;;;;;;8.30;3.27;;;4.80;1.00;;;;;;5053266;28;20804;-67
2022/01/28 04:26:50;;;;;;;13.87;3.50;;;4.80;1.00;;;;;;5054052;28;20401;-78
2022/01/28 04:29:16;;;;;;;8.63;3.53;;;4.70;1.00;;;;;;5053127;28;20182;-67
2022/01/28 04:31:45;;;;;;;16.67;3.57;;;4.70;1.00;;;;;;5052568;28;20764;-79
2022/01/28 04:34:12;;;;;;;2.80;2.57;;;4.70;1.00;;;;;;5053814;28;20532;-78
2022/01/28 04:36:49;;;;;;;10.43;3.00;;;4.70;1.00;;;;;;5053277;28;20451;-66
2022/01/28 04:39:25;;;;;;;10.50;2.70;;;4.60;1.00;;;;;;5052794;28;20428;-67
2022/01/28 04:42:04;;;;;;;6.97;2.17;;;4.60;1.00;;;;;;5053609;28;20436;-66
2022/01/28 04:44:44;;;;;;;10.20;2.53;;;4.60;1.00;;;;;;5053659;28;20428;-78
2022/01/28 05:26:51;;;;;;;11.60;3.50;;;4.40;1.00;;;;;;5053280;28;20409;-66
2022/01/28 05:29:17;;;;;;;2.93;2.30;;;4.40;1.00;;;;;;5037117;28;20973;-67
2022/01/28 05:31:42;;;;;;;3.67;2.13;;;4.40;1.00;;;;;;5032172;28;20533;-66
2022/01/28 05:34:08;;;;;;;11.80;2.60;;;4.40;1.00;;;;;;5044245;28;20209;-78
2022/01/28 05:36:34;;;;;;;12.13;3.67;;;4.30;1.00;;;;;;5052857;28;20733;-78
2022/01/28 05:39:00;;;;;;;7.90;2.43;;;4.20;1.00;;;;;;5040475;28;20643;-66
2022/01/28 05:41:25;;;;;;;7.47;3.50;;;4.20;1.00;;;;;;5032799;28;20418;-67
2022/01/28 05:43:51;;;;;;;16.90;3.43;;;4.20;1.00;;;;;;5040515;28;20187;-79
2022/01/28 05:46:19;;;;;;;7.30;3.67;;;4.20;1.00;;;;;;5052880;28;20167;-67
2022/01/28 05:48:45;;;;;;;13.23;3.50;;;4.20;1.00;;;;;;5042927;28;20554;-66
2022/01/28 05:51:12;;;;;;;8.67;2.70;;;4.20;1.00;;;;;;5032761;28;20411;-78
2022/01/28 05:53:38;;;;;;;11.30;3.97;;;4.20;1.00;;;;;;5032597;28;20208;-67
2022/01/28 05:56:03;;;;;;;10.43;2.30;;;4.20;1.00;;;;;;5033056;28;20896;-78
2022/01/28 05:58:29;;;;;;;10.87;3.40;;;4.20;1.00;;;;;;5032445;28;20527;-73
2022/01/28 06:00:55;;;;;;;10.80;2.90;;;4.20;1.00;;;;;;5032426;28;20662;-78
2022/01/28 06:03:20;;;;;;;25.80;3.63;;;4.10;1.00;;;;;;5034053;28;20179;-79
2022/01/28 06:05:48;;;;;;;5.87;2.53;;;4.10;1.00;;;;;;5052333;28;20183;-67
2022/01/28 06:08:14;;;;;;;6.30;2.30;;;4.20;1.00;;;;;;5050331;28;20163;-67
2022/01/28 06:10:39;;;;;;;11.30;2.77;;;4.20;1.00;;;;;;5031695;28;20829;-78
2022/01/28 06:13:05;;;;;;;9.37;2.93;;;4.20;1.00;;;;;;5032484;28;20192;-74
2022/01/28 06:15:31;;;;;;;9.10;4.47;;;4.10;1.00;;;;;;5033741;28;20163;-75
2022/01/28 06:17:57;;;;;;;7.77;2.90;;;4.10;1.00;;;;;;5032543;28;20414;-79
2022/01/28 06:20:23;;;;;;;6.63;3.23;;;4.10;1.00;;;;;;5049322;28;20532;-78
2022/01/28 06:22:49;;;;;;;7.93;3.00;;;4.10;1.00;;;;;;5051446;28;20182;-78
2022/01/28 06:25:15;;;;;;;22.90;3.50;;;4.00;1.00;;;;;;5036209;28;20171;-68
2022/01/28 06:27:42;;;;;;;6.90;3.30;;;4.00;1.00;;;;;;5032053;28;20398;-78
2022/01/28 06:30:09;;;;;;;14.07;3.77;;;4.00;1.00;;;;;;5032119;28;20456;-67
2022/01/28 06:32:35;;;;;;;12.60;3.47;;;4.00;1.00;;;;;;5032525;28;20441;-66
2022/01/28 06:35:02;;;;;;;6.63;3.83;;;4.00;1.00;;;;;;5046424;28;20476;-78
2022/01/28 06:37:28;;;;;;;10.73;3.93;;;4.00;1.00;;;;;;5056170;28;20401;-66
2022/01/28 06:39:53;;;;;;;8.33;3.90;;;4.00;1.00;;;;;;5042705;28;20416;-66
2022/01/28 06:42:19;;;;;;;8.27;3.70;;;3.90;1.00;;;;;;5036039;28;20225;-68
2022/01/28 06:44:44;;;;;;;6.27;2.70;;;4.00;1.00;;;;;;5035947;28;20176;-69
2022/01/28 06:47:11;;;;;;;8.93;2.90;;;4.00;1.00;;;;;;5034028;28;20723;-68
2022/01/28 06:49:40;;;;;;;10.07;2.42;;;4.00;1.00;;;;;;5042661;28;20427;-79
2022/01/28 06:52:09;;;;;;;8.90;2.80;;;3.90;1.00;;;;;;5055614;28;20191;-78
2022/01/28 06:54:35;;;;;;;19.33;4.83;;;3.90;1.00;;;;;;5045238;28;20548;-66
2022/01/28 06:57:10;;;;;;;8.00;2.73;;;3.90;1.00;;;;;;5035932;28;20415;-78
2022/01/28 06:59:36;;;;;;;6.23;3.43;;;3.80;1.00;;;;;;5053497;28;20420;-68
2022/01/28 07:06:37;;;;;;;6.63;3.07;;;3.70;1.00;;;;;;5013700;28;20757;-77
2022/01/28 07:09:03;;;;;;;12.70;2.60;;;3.70;1.00;;;;;;4934437;28;20437;-66
2022/01/28 07:11:32;;;;;;;4.47;3.60;;;3.70;1.00;;;;;;5022873;28;20472;-66
2022/01/28 07:14:00;;;;;;;5.03;2.53;;;3.70;1.00;;;;;;5036221;28;20457;-67
2022/01/28 07:16:27;;;;;;;8.60;2.77;;;3.70;1.00;;;;;;5035354;28;21063;-67
2022/01/28 07:18:53;;;;;;;13.27;3.03;;;3.70;1.00;;;;;;5047962;28;20959;-67
2022/01/28 07:21:19;;;;;;;14.43;3.87;;;3.60;1.00;;;;;;5055017;28;20421;-79
2022/01/28 07:23:45;;;;;;;13.03;3.47;;;3.70;1.00;;;;;;5042676;28;20953;-66
2022/01/28 07:26:15;;;;;;;11.47;3.40;;;3.70;1.00;;;;;;5034863;28;20410;-71
2022/01/28 07:28:41;;;;;;;11.97;2.67;;;3.70;1.00;;;;;;5034880;28;20426;-66
2022/01/28 07:31:13;;;;;;;15.90;5.37;;;3.60;1.00;;;;;;5035044;28;20771;-78
2022/01/28 07:33:39;;;;;;;19.83;3.90;;;3.60;1.00;;;;;;5044840;28;20452;-78
2022/01/28 07:36:06;;;;;;;7.30;2.93;;;3.60;1.00;;;;;;5055049;28;20912;-78
2022/01/28 07:38:31;;;;;;;7.60;4.23;;;3.70;1.00;;;;;;5044798;28;20461;-67
2022/01/28 07:40:58;;;;;;;12.13;3.93;;;3.70;1.00;;;;;;5034824;28;20434;-79
2022/01/28 07:43:38;;;;;;;24.13;3.43;;;3.60;1.00;;;;;;5035934;28;20525;-66
2022/01/28 07:46:05;;;;;;;9.60;3.17;;;3.70;1.00;;;;;;5034159;28;20430;-79
2022/01/28 07:48:34;;;;;;;7.27;2.97;;;3.60;1.00;;;;;;5040185;28;20475;-72
2022/01/28 07:51:02;;;;;;;14.37;3.53;;;3.60;1.00;;;;;;5054654;28;20440;-67
2022/01/28 07:53:38;;;;;;;7.10;3.20;;;3.60;1.00;;;;;;5047758;28;20461;-78
2022/01/28 07:56:04;;;;;;;16.30;3.37;;;3.60;1.00;;;;;;5034877;28;20402;-66
2022/01/28 07:58:43;;;;;;;10.10;3.87;;;3.70;1.00;;;;;;5035021;28;20412;-73
2022/01/28 08:01:11;;;;;;;10.47;3.53;;;3.60;1.00;;;;;;5034676;28;20438;-66
2022/01/28 08:03:37;;;;;;;5.90;3.40;;;3.60;1.00;;;;;;5041253;28;20420;-79
2022/01/28 08:06:03;;;;;;;9.40;3.10;;;3.60;1.00;;;;;;5054147;28;20413;-78
2022/01/28 08:08:32;;;;;;;5.87;2.80;;;3.60;1.00;;;;;;5054112;28;20402;-72
2022/01/28 08:10:58;;;;;;;18.53;4.03;;;3.70;1.00;;;;;;5054487;28;20453;-66
2022/01/28 08:13:34;;;;;;;;;;;;;;;;;;;;;
2022/01/28 08:16:01;;;;;;;4.83;3.27;;;3.80;1.00;;;;;;5054614;28;20404;-66
2022/01/28 08:18:35;;;;;;;13.07;4.33;;;3.70;1.00;;;;;;5054425;28;20407;-66
2022/01/28 08:21:01;;;;;;;7.73;3.67;;;3.80;1.00;;;;;;5054372;28;20479;-67
2022/01/28 08:23:30;;;;;;;3.50;2.83;;;3.80;1.00;;;;;;5054018;28;20401;-78
2022/01/28 08:25:56;;;;;;;15.10;3.50;;;3.80;1.00;;;;;;5054486;28;20474;-67
2022/01/28 08:28:32;;;;;;;8.83;2.80;;;3.80;1.00;;;;;;5054269;28;20413;-79
2022/01/28 08:31:02;;;;;;;4.53;2.80;;;3.90;1.00;;;;;;5054106;28;20436;-78
2022/01/28 08:33:28;;;;;;;8.80;3.27;;;3.80;1.00;;;;;;5054296;28;20455;-66
2022/01/28 08:35:55;;;;;;;12.80;3.43;;;3.80;1.00;;;;;;5054162;28;20402;-79
2022/01/28 08:38:26;;;;;;;11.10;3.33;;;3.90;1.00;;;;;;5054141;28;20902;-74
2022/01/28 08:40:54;;;;;;;5.03;3.00;;;3.90;1.00;;;;;;5052781;28;20545;-78
2022/01/28 08:43:20;;;;;;;3.00;2.70;;;3.90;1.00;;;;;;5054080;28;20410;-78
2022/01/28 08:45:46;;;;;;;3.90;3.10;;;4.00;1.00;;;;;;5054152;28;20408;-66
2022/01/28 08:48:12;;;;;;;8.47;3.27;;;4.10;1.00;;;;;;5053963;28;20405;-67
2022/01/28 08:50:38;;;;;;;3.67;3.37;;;4.10;1.00;;;;;;5052823;28;20450;-68
2022/01/28 08:53:07;;;;;;;10.50;2.80;;;4.10;1.00;;;;;;5053721;28;20900;-78
2022/01/28 08:55:33;;;;;;;8.90;3.30;;;4.20;1.00;;;;;;5053757;28;20467;-77
2022/01/28 09:01:46;;;;;;;;;;;;;;;;;;;;;
2022/01/28 09:07:23;;;;;;;4.67;2.77;;;4.30;1.00;;;;;;5031587;28;20419;-78
2022/01/28 09:09:52;;;;;;;8.00;3.80;;;4.40;1.00;;;;;;5030672;28;20489;-78
2022/01/28 09:12:59;;;;;;;7.70;3.20;;;4.60;1.00;;;;;;5044636;28;20429;-66
2022/01/28 09:15:25;;;;;;;4.80;2.60;;;4.60;1.00;;;;;;5053041;28;20419;-79
2022/01/28 09:17:51;;;;;;;5.33;3.07;;;4.70;1.00;;;;;;5052788;28;20485;-67
2022/01/28 09:20:17;;;;;;;7.37;3.00;;;4.70;1.00;;;;;;5052519;28;20423;-66
2022/01/28 09:22:43;;;;;;;7.33;2.80;;;4.70;1.00;;;;;;5053515;28;20422;-66
2022/01/28 09:25:09;;;;;;;8.93;2.73;;;4.80;1.00;;;;;;5053350;28;20187;-67
2022/01/28 09:27:35;;;;;;;5.43;2.87;;;4.80;1.00;;;;;;5053440;28;20416;-79
2022/01/28 09:30:01;;;;;;;6.60;2.20;;;5.00;1.00;;;;;;5052315;28;20409;-79
2022/01/28 09:32:27;;;;;;;4.13;2.67;;;5.00;1.00;;;;;;5052912;28;20403;-66
2022/01/28 09:34:53;;;;;;;3.00;2.67;;;5.10;1.00;;;;;;5053380;28;20452;-79
2022/01/28 09:37:19;;;;;;;14.93;3.03;;;5.20;1.00;;;;;;5053228;28;20883;-78
2022/01/28 09:39:46;;;;;;;7.13;3.77;;;5.20;1.00;;;;;;5052493;28;20963;-66
2022/01/28 09:42:15;;;;;;;6.20;2.90;;;5.20;1.00;;;;;;5053236;28;20429;-79
2022/01/28 09:44:42;;;;;;;6.50;3.07;;;5.30;1.00;;;;;;5051924;28;20475;-77
2022/01/28 09:47:10;;;;;;;8.33;2.93;;;5.40;1.00;;;;;;5053205;28;20447;-67
2022/01/28 09:49:40;;;;;;;16.63;2.90;;;5.50;1.00;;;;;;5051779;28;20436;-66
2022/01/28 09:52:09;;;;;;;6.00;2.73;;;5.50;1.00;;;;;;5053128;28;20429;-78
2022/01/28 09:54:35;;;;;;;9.33;2.83;;;5.40;1.00;;;;;;5053073;28;20543;-66
2022/01/28 09:57:04;;;;;;;8.87;3.27;;;5.50;1.00;;;;;;5053069;28;20403;-79
2022/01/28 09:59:30;;;;;;;5.60;3.07;;;5.50;1.00;;;;;;5052084;28;20817;-74
2022/01/28 10:01:56;;;;;;;14.60;3.63;;;5.50;1.00;;;;;;5053142;28;20451;-66
2022/01/28 10:04:23;;;;;;;6.63;3.47;;;5.60;1.00;;;;;;5052922;28;20965;-68
2022/01/28 10:06:49;;;;;;;14.73;4.27;;;5.60;1.00;;;;;;5051445;28;20508;-79
2022/01/28 10:09:18;;;;;;;15.23;2.87;;;5.70;1.00;;;;;;5052061;28;20416;-67
2022/01/28 10:11:48;;;;;;;9.00;3.60;;;5.80;1.00;;;;;;5055382;28;20447;-79
2022/01/28 10:14:17;;;;;;;3.73;1.60;;;5.90;1.00;;;;;;5056789;28;20464;-78
2022/01/28 10:16:53;;;;;;;6.70;2.80;;;6.00;1.00;;;;;;5057030;28;20404;-79
2022/01/28 10:19:19;;;;;;;12.83;2.90;;;6.10;1.00;;;;;;5055900;28;20459;-67
2022/01/28 10:21:45;;;;;;;4.43;2.90;;;6.00;1.00;;;;;;5048668;28;20474;-67
2022/01/28 10:24:25;;;;;;;16.17;3.60;;;6.10;1.00;;;;;;5036403;28;20251;-79
2022/01/28 10:27:06;;;;;;;5.50;2.73;;;6.10;1.00;;;;;;5055570;28;20424;-67
2022/01/28 10:29:40;;;;;;;4.77;2.53;;;6.10;1.00;;;;;;5055674;28;20409;-80
2022/01/28 10:32:12;;;;;;;4.40;2.93;;;6.10;1.00;;;;;;5055574;28;20433;-67
2022/01/28 10:34:49;;;;;;;16.57;4.70;;;6.20;1.00;;;;;;5056430;28;20452;-79
2022/01/28 10:37:15;;;;;;;8.50;5.10;;;6.30;1.00;;;;;;5056404;28;20405;-67
2022/01/28 10:39:54;;;;;;;7.97;3.87;;;6.30;1.00;;;;;;5055439;28;20890;-67
2022/01/28 10:42:29;;;;;;;6.53;2.87;;;6.30;1.00;;;;;;5056133;28;20163;-71
2022/01/28 10:44:58;;;;;;;15.50;2.87;;;6.30;1.00;;;;;;5056311;28;20491;-80
2022/01/28 10:47:39;;;;;;;6.03;2.80;;;6.30;1.00;;;;;;5056316;28;20440;-80
2022/01/28 10:50:38;;;;;;;6.93;2.60;;;6.30;1.00;;;;;;5055200;28;20448;-78
2022/01/28 10:53:08;;;;;;;2.63;2.43;;;6.40;1.00;;;;;;5044148;28;20410;-66
2022/01/28 10:55:43;;;;;;;10.23;3.00;;;6.50;1.00;;;;;;5055963;28;20899;-79
2022/01/28 10:58:20;;;;;;;9.83;3.13;;;6.50;1.00;;;;;;5055763;28;20444;-66
2022/01/28 11:00:47;;;;;;;9.63;3.00;;;6.60;1.00;;;;;;5054650;28;20417;-78
2022/01/28 11:03:16;;;;;;;5.60;3.13;;;6.70;1.00;;;;;;5055969;28;20434;-67
2022/01/28 11:05:46;;;;;;;14.37;2.20;;;6.70;1.00;;;;;;5055779;28;20406;-67
2022/01/28 11:08:13;;;;;;;4.97;2.80;;;6.80;1.00;;;;;;5055757;28;20801;-66
2022/01/28 11:10:41;;;;;;;6.60;2.80;;;6.90;1.00;;;;;;5054840;28;20460;-66
2022/01/28 11:13:07;;;;;;;12.40;3.13;;;7.10;1.00;;;;;;5055586;28;20455;-66
2022/01/28 11:15:34;;;;;;;6.90;3.53;;;7.30;1.00;;;;;;5055588;28;20459;-66
2022/01/28 11:18:03;;;;;;;3.40;2.00;;;7.80;1.00;;;;;;5055492;28;20404;-74
2022/01/28 11:20:36;;;;;;;8.27;3.20;;;8.20;1.00;;;;;;5054295;28;20508;-67
2022/01/28 11:23:10;;;;;;;14.80;3.13;;;8.30;1.00;;;;;;5055598;28;20485;-79
2022/01/28 11:26:15;;;;;;;6.70;3.03;;;8.20;1.00;;;;;;5055765;28;20404;-68
2022/01/28 11:28:55;;;;;;;10.00;2.97;;;8.00;1.00;;;;;;5054474;28;21170;-67
2022/01/28 11:31:51;;;;;;;3.37;2.70;;;7.80;1.00;;;;;;5055527;28;20476;-67
2022/01/28 11:34:21;;;;;;;2.90;2.43;;;7.70;1.00;;;;;;5054125;28;20461;-79
2022/01/28 11:36:47;;;;;;;9.37;3.30;;;7.60;1.00;;;;;;5055033;28;20432;-67
2022/01/28 11:39:30;;;;;;;12.63;3.27;;;7.60;1.00;;;;;;5054476;28;20405;-78
2022/01/28 11:42:11;;;;;;;2.60;2.40;;;7.50;1.00;;;;;;5055174;28;20421;-74
2022/01/28 11:44:55;;;;;;;5.03;2.53;;;7.50;1.00;;;;;;5055168;28;20499;-79
2022/01/28 11:47:25;;;;;;;15.20;2.40;;;7.50;1.00;;;;;;5055180;28;20441;-78
2022/01/28 11:49:53;;;;;;;8.00;2.80;;;7.60;1.00;;;;;;5054209;28;20426;-67
2022/01/28 11:52:27;;;;;;;4.70;2.77;;;7.70;1.00;;;;;;5054945;28;20404;-67
2022/01/28 11:54:54;;;;;;;10.70;2.73;;;7.60;1.00;;;;;;5054568;28;20472;-79
2022/01/28 11:57:21;;;;;;;4.50;2.67;;;7.50;1.00;;;;;;5054914;28;20944;-79
2022/01/28 11:59:47;;;;;;;3.83;2.40;;;7.50;1.00;;;;;;5054024;28;20410;-68
2022/01/28 12:02:15;;;;;;;5.17;2.80;;;7.50;1.00;;;;;;5054763;28;20417;-68
2022/01/28 12:04:42;;;;;;;9.10;3.13;;;7.50;1.00;;;;;;5054720;28;20406;-67
2022/01/28 12:07:15;;;;;;;7.93;3.73;;;7.40;1.00;;;;;;5053440;28;20496;-79
2022/01/28 12:09:54;;;;;;;13.90;3.73;;;7.40;1.00;;;;;;5037585;28;20449;-67
2022/01/28 12:13:04;;;;;;;5.83;2.50;;;7.40;1.00;;;;;;5034081;28;20942;-69
2022/01/28 12:15:57;;;;;;;6.23;3.10;;;7.30;1.00;;;;;;5034401;28;20457;-67
2022/01/28 12:18:24;;;;;;;7.83;2.17;;;7.20;1.00;;;;;;5034307;28;20413;-69
2022/01/28 12:20:50;;;;;;;10.13;3.50;;;7.20;1.00;;;;;;5032887;28;20526;-68
2022/01/28 12:23:19;;;;;;;6.70;2.40;;;7.10;1.00;;;;;;5034673;28;20448;-79
2022/01/28 12:25:46;;;;;;;8.27;3.47;;;7.20;1.00;;;;;;5034406;28;20394;-67
2022/01/28 12:28:12;;;;;;;6.03;3.37;;;7.20;1.00;;;;;;5034179;28;20441;-79
2022/01/28 12:30:39;;;;;;;5.77;3.23;;;7.30;1.00;;;;;;5033013;28;20418;-68
2022/01/28 12:33:04;;;;;;;6.80;2.50;;;7.30;1.00;;;;;;5033951;28;20433;-67
2022/01/28 12:35:30;;;;;;;13.00;3.27;;;7.30;1.00;;;;;;5033950;28;20422;-68
2022/01/28 12:38:01;;;;;;;3.07;2.40;;;7.40;1.00;;;;;;5034156;28;20164;-79
2022/01/28 12:40:35;;;;;;;4.53;2.00;;;7.40;1.00;;;;;;5033178;28;20282;-79
2022/01/28 12:43:04;;;;;;;6.33;2.60;;;7.40;1.00;;;;;;5034097;28;20772;-79
2022/01/28 12:45:30;;;;;;;6.47;2.50;;;7.40;1.00;;;;;;5034202;28;20402;-67
2022/01/28 12:47:56;;;;;;;3.83;2.40;;;7.40;1.00;;;;;;5033666;28;20417;-67
2022/01/28 12:50:22;;;;;;;8.63;3.10;;;7.40;1.00;;;;;;5033042;28;20450;-67
2022/01/28 12:52:49;;;;;;;3.47;2.60;;;7.50;1.00;;;;;;5033818;28;20460;-77
2022/01/28 12:55:15;;;;;;;4.10;2.30;;;7.40;1.00;;;;;;5033899;28;20459;-68
2022/01/28 12:57:46;;;;;;;4.90;2.23;;;7.40;1.00;;;;;;5033996;28;20402;-67
2022/01/28 13:00:13;;;;;;;2.50;1.80;;;7.50;1.00;;;;;;5031680;28;20202;-77
2022/01/28 13:02:41;;;;;;;4.47;2.20;;;7.50;1.00;;;;;;5033815;28;20398;-77
2022/01/28 13:10:30;;;;;;;6.27;2.57;;;7.40;99.90;;;;;;5032715;28;20428;-67
2022/01/28 13:13:10;;;;;;;5.47;2.73;;;7.30;99.90;;;;;;5033449;28;20497;-77
2022/01/28 13:15:38;;;;;;;7.40;2.47;;;7.30;99.90;;;;;;5033637;28;20410;-77
2022/01/28 13:18:08;;;;;;;3.23;2.77;;;7.30;99.90;;;;;;5033739;28;20417;-67
2022/01/28 13:20:39;;;;;;;3.23;2.30;;;7.30;99.90;;;;;;5032635;28;20434;-78
2022/01/28 13:23:06;;;;;;;3.63;1.70;;;7.30;99.90;;;;;;5033052;28;20433;-76
2022/01/28 13:25:32;;;;;;;8.30;2.00;;;7.30;99.90;;;;;;5033888;28;20450;-77
2022/01/28 13:28:01;;;;;;;2.27;1.80;;;7.30;99.90;;;;;;5033650;28;20417;-67
2022/01/28 13:30:35;;;;;;;10.70;2.53;;;7.30;99.90;;;;;;5032541;28;20430;-78
2022/01/28 13:33:05;;;;;;;4.17;2.60;;;7.30;99.90;;;;;;5032123;28;20407;-68
2022/01/28 13:35:33;;;;;;;7.07;2.83;;;7.40;99.90;;;;;;5033466;28;20472;-67
2022/01/28 13:38:03;;;;;;;10.77;3.10;;;7.30;99.90;;;;;;5033387;28;20413;-78
2022/01/28 13:40:34;;;;;;;8.23;2.40;;;7.40;99.90;;;;;;5031935;28;20855;-77
2022/01/28 13:43:02;;;;;;;7.43;2.53;;;7.30;99.90;;;;;;5033306;28;20426;-76
2022/01/28 13:45:41;;;;;;;2.13;1.93;;;7.30;99.90;;;;;;5035376;28;20410;-78
2022/01/28 13:48:19;;;;;;;10.40;2.30;;;7.30;99.90;;;;;;5037480;28;20414;-68
2022/01/28 13:50:50;;;;;;;5.53;1.57;;;7.30;99.90;;;;;;5036286;28;20536;-67
2022/01/28 13:56:04;;;;;;;8.97;2.60;;;7.30;99.90;;;;;;5037596;28;20409;-67
2022/01/28 13:59:01;;;;;;;1.80;1.70;;;7.40;99.90;;;;;;5036346;28;20445;-75
2022/01/28 14:01:28;;;;;;;2.33;2.23;;;7.40;99.90;;;;;;5036622;28;20505;-67
2022/01/28 14:04:02;;;;;;;2.30;2.10;;;7.30;99.90;;;;;;5037162;28;20425;-67
2022/01/28 14:06:32;;;;;;;2.20;2.00;;;7.40;99.90;;;;;;5037215;28;20414;-77
2022/01/28 14:09:15;;;;;;;4.60;2.70;;;7.40;99.90;;;;;;5036153;28;20770;-68
2022/01/28 14:11:58;;;;;;;10.17;2.50;;;7.40;99.90;;;;;;5036903;28;20441;-67
2022/01/28 14:16:59;;;;;;;12.60;2.20;;;7.30;99.90;;;;;;5036708;28;20409;-66
2022/01/28 14:19:32;;;;;;;4.30;2.97;;;7.20;99.90;;;;;;5035921;28;20399;-76
2022/01/28 14:21:59;;;;;;;7.90;2.83;;;7.00;99.90;;;;;;5036807;28;20517;-66
2022/01/28 14:24:35;;;;;;;7.97;2.40;;;7.10;99.90;;;;;;5036788;28;20826;-77
2022/01/28 14:31:56;;;;;;;3.73;2.13;;;7.00;99.90;;;;;;5036121;28;20413;-77
2022/01/28 14:34:23;;;;;;;7.23;3.00;;;7.00;99.90;;;;;;5036994;28;20807;-67
2022/01/28 14:36:49;;;;;;;8.10;2.47;;;6.90;99.90;;;;;;5036528;28;20191;-78
2022/01/28 14:39:16;;;;;;;7.80;2.43;;;7.00;1.00;;;;;;5035660;28;20406;-67
2022/01/28 14:41:43;;;;;;;8.20;2.60;;;7.10;1.00;;;;;;5036215;28;20780;-78
2022/01/28 14:44:09;;;;;;;5.23;2.50;;;7.00;1.00;;;;;;5036454;28;20895;-78
2022/01/28 14:46:36;;;;;;;5.83;2.50;;;7.00;1.00;;;;;;5034889;28;20429;-77
2022/01/28 14:49:04;;;;;;;10.53;3.23;;;6.80;1.00;;;;;;5035120;28;20422;-67
2022/01/28 14:51:31;;;;;;;9.27;2.73;;;6.70;1.00;;;;;;5036223;28;20441;-68
2022/01/28 14:53:57;;;;;;;6.50;3.10;;;6.60;1.00;;;;;;5036158;28;20484;-67
2022/01/28 14:56:23;;;;;;;4.80;2.73;;;6.70;1.00;;;;;;5035790;28;20406;-67
2022/01/28 14:58:52;;;;;;;13.73;3.00;;;6.60;1.00;;;;;;5035419;28;20402;-67
2022/01/28 15:01:18;;;;;;;10.40;3.50;;;6.50;1.00;;;;;;5036026;28;20911;-67
2022/01/28 15:03:44;;;;;;;13.77;3.83;;;6.50;1.00;;;;;;5035983;28;20473;-77
2022/01/28 15:06:14;;;;;;;9.80;2.67;;;6.50;1.00;;;;;;5035886;28;20496;-67
2022/01/28 15:08:42;;;;;;;10.13;2.63;;;6.30;1.00;;;;;;5034739;28;20411;-67
2022/01/28 15:11:13;;;;;;;6.70;2.70;;;6.30;1.00;;;;;;5035847;28;20434;-78
2022/01/28 15:13:42;;;;;;;6.30;2.40;;;6.20;1.00;;;;;;5035695;28;20458;-67